Terminal Aerodrome Forecast
Issued by NWS

Current Version | Previous Version | Graphics & Text | Print | Product List | Glossary On
Versions: 1 2 3 4 5 6 7 8 9 10 11 12 13 14 15 16 17 18 19 20 21 22 23 24 25 26 27 28 29 30 31 32 33 34 35 36 37 38 39 40 41 42 43
000
FTUS41 KRNK 261733
TAFLWB
TAF
KLWB 261733Z 2618/2718 VRB03KT 2SM -SN BR OVC005
     FM262100 27003KT 6SM BR OVC012
     FM270500 25003KT 4SM -SN OVC006
     FM271500 32006KT 6SM -SHSN OVC025=

USA.gov is the U.S. government's official web portal to all federal, state and local government web resources and services.